createdAt,value
2022-08-02T00:00:38.652Z,3.97
2022-08-02T00:02:56.412Z,3.40
2022-08-02T00:05:14.988Z,3.50
2022-08-02T00:07:36.349Z,3.60
2022-08-02T00:09:56.909Z,3.38
2022-08-02T00:12:14.675Z,3.30
2022-08-02T00:14:32.423Z,3.70
2022-08-02T00:16:50.328Z,3.22
2022-08-02T00:19:08.156Z,3.13
2022-08-02T00:21:25.949Z,3.47
2022-08-02T00:24:03.287Z,4.07
2022-08-02T00:26:21.601Z,3.47
2022-08-02T00:28:39.386Z,3.60
2022-08-02T00:30:57.918Z,3.58
2022-08-02T00:33:16.085Z,3.58
2022-08-02T00:35:53.826Z,3.58
2022-08-02T00:38:11.591Z,3.88
2022-08-02T00:40:29.319Z,3.50
2022-08-02T00:42:47.023Z,4.07
2022-08-02T00:45:05.254Z,3.70
2022-08-02T00:47:23.016Z,4.07
2022-08-02T00:49:40.917Z,3.67
2022-08-02T00:51:58.735Z,4.20
2022-08-02T00:54:16.552Z,3.40
2022-08-02T00:56:34.409Z,3.70
2022-08-02T00:58:52.173Z,3.53
2022-08-02T01:01:10.312Z,3.63
2022-08-02T01:03:28.404Z,3.38
2022-08-02T01:06:02.309Z,3.35
2022-08-02T01:08:29.599Z,4.07
2022-08-02T01:10:49.527Z,3.33
2022-08-02T01:13:07.914Z,3.40
2022-08-02T01:15:35.740Z,3.50
2022-08-02T01:18:00.007Z,3.80
2022-08-02T01:20:20.888Z,3.75
2022-08-02T01:23:00.461Z,3.75
2022-08-02T01:25:37.948Z,3.03
2022-08-02T01:28:07.680Z,3.30
2022-08-02T01:30:25.686Z,3.20
2022-08-02T01:32:45.628Z,3.45
2022-08-02T01:35:15.579Z,3.42
2022-08-02T01:37:36.381Z,3.20
2022-08-02T01:40:09.303Z,3.80
2022-08-02T01:44:46.720Z,3.15
2022-08-02T01:47:06.471Z,3.30
2022-08-02T01:49:25.373Z,3.35
2022-08-02T01:52:02.545Z,3.40
2022-08-02T01:54:23.376Z,3.40
2022-08-02T01:56:42.047Z,3.25
2022-08-02T01:58:59.886Z,3.50
2022-08-02T02:01:19.395Z,3.45
2022-08-02T02:03:41.767Z,3.78
2022-08-02T02:06:00.873Z,3.78
2022-08-02T02:08:27.008Z,3.60
2022-08-02T02:10:46.355Z,3.55
2022-08-02T02:13:06.665Z,3.78
2022-08-02T02:15:25.739Z,3.30
2022-08-02T02:18:11.267Z,3.83
2022-08-02T02:20:22.960Z,3.55
2022-08-02T02:22:41.093Z,3.38
2022-08-02T02:24:59.424Z,3.55
2022-08-02T02:27:18.359Z,3.15
2022-08-02T02:29:36.168Z,3.30
2022-08-02T02:31:55.377Z,3.20
2022-08-02T02:34:15.835Z,3.22
2022-08-02T02:36:34.534Z,3.58
2022-08-02T02:38:53.639Z,3.30
2022-08-02T02:41:12.176Z,3.15
2022-08-02T02:43:31.613Z,2.95
2022-08-02T02:45:50.174Z,3.13
2022-08-02T02:48:08.528Z,3.30
2022-08-02T02:50:26.446Z,4.20
2022-08-02T02:52:44.873Z,4.00
2022-08-02T02:55:02.977Z,3.40
2022-08-02T02:57:21.702Z,2.50
2022-08-02T02:59:42.908Z,3.33
2022-08-02T03:02:07.573Z,3.17
2022-08-02T03:04:56.226Z,3.13
2022-08-02T03:07:06.842Z,3.10
2022-08-02T03:09:24.676Z,3.17
2022-08-02T03:11:42.669Z,3.28
2022-08-02T03:14:01.513Z,3.08
2022-08-02T03:16:19.277Z,3.33
2022-08-02T03:18:38.550Z,3.75
2022-08-02T03:20:59.623Z,3.17
2022-08-02T03:23:17.594Z,3.30
2022-08-02T03:25:35.632Z,3.22
2022-08-02T03:27:53.397Z,3.13
2022-08-02T03:30:12.002Z,3.20
2022-08-02T03:32:29.827Z,3.53
2022-08-02T03:34:47.883Z,3.38
2022-08-02T03:37:05.756Z,3.53
2022-08-02T03:39:23.855Z,3.50
2022-08-02T03:41:42.638Z,4.00
2022-08-02T03:44:01.011Z,3.47
2022-08-02T03:46:21.132Z,3.25
2022-08-02T03:48:39.213Z,3.22
2022-08-02T03:50:57.487Z,3.15
2022-08-02T03:53:19.997Z,3.55
2022-08-02T03:55:38.289Z,3.50
2022-08-02T03:57:56.261Z,3.20
2022-08-02T04:00:18.217Z,3.22
2022-08-02T04:02:36.470Z,2.90
2022-08-02T04:04:54.281Z,3.13
2022-08-02T04:07:12.071Z,3.33
2022-08-02T04:09:29.881Z,3.55
2022-08-02T04:11:47.668Z,3.45
2022-08-02T04:14:06.899Z,3.63
2022-08-02T04:16:29.413Z,3.67
2022-08-02T04:18:51.691Z,4.10
2022-08-02T04:21:13.188Z,3.95
2022-08-02T04:23:31.392Z,3.53
2022-08-02T04:25:49.251Z,4.15
2022-08-02T04:28:17.407Z,4.30
2022-08-02T04:30:37.139Z,5.78
2022-08-02T04:32:55.321Z,3.70
2022-08-02T04:35:21.011Z,3.90
2022-08-02T04:37:39.058Z,3.50
2022-08-02T04:40:17.095Z,3.85
2022-08-02T04:42:34.812Z,3.33
2022-08-02T04:44:53.181Z,3.50
2022-08-02T04:47:10.969Z,3.30
2022-08-02T04:49:28.837Z,3.75
2022-08-02T04:51:46.754Z,3.45
2022-08-02T04:54:09.306Z,3.50
2022-08-02T04:56:27.920Z,3.50
2022-08-02T04:58:45.655Z,3.53
2022-08-02T05:01:03.656Z,3.50
2022-08-02T05:03:21.482Z,3.33
2022-08-02T05:05:39.274Z,3.30
2022-08-02T05:07:57.399Z,3.97
2022-08-02T05:10:15.319Z,3.90
2022-08-02T05:12:33.141Z,3.35
2022-08-02T05:14:50.917Z,3.58
2022-08-02T05:17:08.661Z,3.33
2022-08-02T05:19:26.468Z,3.70
2022-08-02T05:21:44.254Z,3.33
2022-08-02T05:24:02.907Z,3.30
2022-08-02T05:26:20.761Z,3.55
2022-08-02T05:28:38.661Z,3.72
2022-08-02T05:30:56.511Z,3.60
2022-08-02T05:33:14.247Z,3.08
2022-08-02T05:35:32.210Z,3.58
2022-08-02T05:37:51.119Z,3.90
2022-08-02T05:40:12.715Z,3.63
2022-08-02T05:42:34.194Z,3.60
2022-08-02T05:44:52.500Z,3.17
2022-08-02T05:47:10.291Z,3.83
2022-08-02T05:49:28.120Z,3.40
2022-08-02T05:51:55.077Z,3.63
2022-08-02T05:54:31.726Z,3.92
2022-08-02T05:56:56.018Z,3.58
2022-08-02T05:59:32.349Z,3.58
2022-08-02T06:01:53.088Z,3.38
2022-08-02T06:04:12.397Z,3.70
2022-08-02T06:06:32.174Z,3.88
2022-08-02T06:08:59.516Z,3.63
2022-08-02T06:11:23.966Z,3.25
2022-08-02T06:13:45.104Z,3.53
2022-08-02T06:16:03.537Z,3.10
2022-08-02T06:18:27.861Z,3.72
2022-08-02T06:20:50.444Z,2.95
2022-08-02T06:23:13.564Z,3.43
2022-08-02T06:25:49.620Z,3.40
2022-08-02T06:28:11.266Z,4.03
2022-08-02T06:30:29.816Z,3.88
2022-08-02T06:32:51.419Z,3.85
2022-08-02T06:35:09.643Z,3.50
2022-08-02T06:37:27.646Z,3.90
2022-08-02T06:39:46.943Z,3.35
2022-08-02T06:42:07.905Z,3.38
2022-08-02T06:44:53.111Z,3.20
2022-08-02T06:47:13.878Z,3.42
2022-08-02T06:49:52.569Z,3.35
2022-08-02T06:52:10.056Z,3.33
2022-08-02T06:54:28.194Z,3.45
2022-08-02T06:56:46.805Z,3.60
2022-08-02T06:59:06.336Z,3.20
2022-08-02T07:01:24.240Z,3.33
2022-08-02T07:03:42.144Z,3.30
2022-08-02T07:05:59.960Z,3.70
2022-08-02T07:08:17.960Z,3.40
2022-08-02T07:10:35.760Z,3.42
2022-08-02T07:12:54.316Z,3.67
2022-08-02T07:15:14.117Z,3.60
2022-08-02T07:17:32.052Z,3.10
2022-08-02T07:19:49.814Z,3.22
2022-08-02T07:22:07.665Z,3.08
2022-08-02T07:24:26.164Z,2.90
2022-08-02T07:27:08.605Z,3.58
2022-08-02T07:29:21.947Z,3.53
2022-08-02T07:31:39.810Z,3.00
2022-08-02T07:33:57.625Z,2.80
2022-08-02T07:36:17.011Z,3.10
2022-08-02T07:38:40.354Z,3.10
2022-08-02T07:40:59.024Z,2.60
2022-08-02T07:43:17.357Z,2.47
2022-08-02T07:45:36.258Z,2.33
2022-08-02T07:48:13.483Z,2.10
2022-08-02T07:50:31.369Z,2.22
2022-08-02T07:52:57.126Z,2.40
2022-08-02T07:55:16.943Z,2.10
2022-08-02T07:57:34.805Z,2.10
2022-08-02T07:59:52.626Z,2.30
2022-08-02T08:02:10.607Z,2.40
2022-08-02T08:04:28.563Z,2.28
2022-08-02T08:06:52.053Z,2.30
2022-08-02T08:09:10.553Z,2.30
2022-08-02T08:11:28.316Z,2.17
2022-08-02T08:13:46.083Z,2.47
2022-08-02T08:16:04.104Z,2.20
2022-08-02T08:18:22.308Z,1.90
2022-08-02T08:20:40.120Z,2.10
2022-08-02T08:22:58.092Z,2.40
2022-08-02T08:25:15.841Z,1.90
2022-08-02T08:27:33.680Z,2.30
2022-08-02T08:29:51.449Z,2.25
2022-08-02T08:32:14.132Z,2.10
2022-08-02T08:34:34.936Z,2.67
2022-08-02T08:36:52.750Z,2.17
2022-08-02T08:39:10.527Z,1.95
2022-08-02T08:41:30.146Z,2.53
2022-08-02T08:43:53.116Z,2.20
2022-08-02T08:46:12.492Z,1.95
2022-08-02T08:48:32.153Z,2.45
2022-08-02T08:50:53.864Z,2.22
2022-08-02T08:53:13.772Z,2.13
2022-08-02T08:55:32.138Z,2.60
2022-08-02T08:57:50.148Z,2.60
2022-08-02T09:00:08.367Z,2.40
2022-08-02T09:02:28.504Z,2.17
2022-08-02T09:04:54.459Z,2.60
2022-08-02T09:07:12.577Z,2.50
2022-08-02T09:09:33.648Z,2.20
2022-08-02T09:11:51.482Z,2.33
2022-08-02T09:14:09.236Z,2.20
2022-08-02T09:16:32.732Z,2.35
2022-08-02T09:18:50.497Z,2.28
2022-08-02T09:21:09.291Z,2.42
2022-08-02T09:23:28.315Z,2.08
2022-08-02T09:26:00.875Z,2.03
2022-08-02T09:28:20.247Z,2.50
2022-08-02T09:30:43.838Z,2.20
2022-08-02T09:33:05.615Z,2.10
2022-08-02T09:36:07.210Z,2.10
2022-08-02T09:38:11.834Z,2.10
2022-08-02T09:40:37.235Z,2.10
2022-08-02T09:43:01.179Z,2.03
2022-08-02T09:45:19.274Z,1.80
2022-08-02T09:47:37.218Z,2.13
2022-08-02T09:49:55.841Z,2.03
2022-08-02T09:52:14.125Z,2.05
2022-08-02T09:54:33.058Z,2.28
2022-08-02T09:56:52.001Z,2.50
2022-08-02T09:59:10.233Z,2.25
2022-08-02T10:01:37.085Z,2.28
2022-08-02T10:03:56.889Z,2.33
2022-08-02T10:06:16.271Z,2.40
2022-08-02T10:08:34.128Z,2.45
2022-08-02T10:11:00.641Z,2.20
2022-08-02T10:13:21.936Z,2.33
2022-08-02T10:15:40.377Z,3.33
2022-08-02T10:18:35.929Z,2.58
2022-08-02T10:20:48.378Z,2.33
2022-08-02T10:23:07.216Z,2.70
2022-08-02T10:25:25.162Z,2.88
2022-08-02T10:28:04.134Z,2.20
2022-08-02T10:30:24.639Z,2.35
2022-08-02T10:32:45.810Z,2.20
2022-08-02T10:35:20.059Z,2.10
2022-08-02T10:37:42.046Z,2.10
2022-08-02T10:39:59.912Z,2.28
2022-08-02T10:42:37.604Z,2.22
2022-08-02T10:45:10.204Z,1.80
2022-08-02T10:47:28.132Z,2.20
2022-08-02T10:50:04.044Z,2.50
2022-08-02T10:52:42.093Z,2.38
2022-08-02T10:55:03.421Z,2.25
2022-08-02T10:57:32.359Z,3.03
2022-08-02T10:59:51.455Z,3.17
2022-08-02T11:02:09.373Z,2.45
2022-08-02T11:04:27.336Z,2.50
2022-08-02T11:07:03.944Z,2.08
2022-08-02T11:09:33.424Z,2.53
2022-08-02T11:12:23.902Z,2.67
2022-08-02T11:14:42.766Z,2.30
2022-08-02T11:17:02.772Z,2.33
2022-08-02T11:19:20.503Z,2.40
2022-08-02T11:21:38.723Z,2.20
2022-08-02T11:23:57.383Z,2.30
2022-08-02T11:26:30.429Z,2.70
2022-08-02T11:28:51.510Z,2.45
2022-08-02T11:31:09.290Z,2.50
2022-08-02T11:33:34.292Z,2.35
2022-08-02T11:35:52.254Z,3.75
2022-08-02T11:38:14.227Z,2.97
2022-08-02T11:40:38.634Z,2.70
2022-08-02T11:42:56.441Z,2.47
2022-08-02T11:45:21.348Z,2.80
2022-08-02T11:47:49.953Z,2.13
2022-08-02T11:50:09.137Z,2.35
2022-08-02T11:52:33.642Z,2.22
2022-08-02T11:54:51.378Z,2.50
2022-08-02T11:57:15.590Z,2.40
2022-08-02T11:59:40.721Z,2.50
2022-08-02T12:01:58.531Z,2.00
2022-08-02T12:04:18.185Z,2.80
2022-08-02T12:06:36.266Z,2.15
2022-08-02T12:08:59.203Z,2.17
2022-08-02T12:11:20.841Z,2.15
2022-08-02T12:13:45.448Z,2.08
2022-08-02T12:16:47.616Z,1.75
2022-08-02T12:19:22.614Z,1.80
2022-08-02T12:21:40.474Z,2.10
2022-08-02T12:24:00.094Z,1.98
2022-08-02T12:26:18.997Z,2.40
2022-08-02T12:28:40.560Z,2.00
2022-08-02T12:31:00.420Z,2.20
2022-08-02T12:33:18.193Z,1.80
2022-08-02T12:35:36.309Z,1.90
2022-08-02T12:37:54.204Z,1.60
2022-08-02T12:40:30.079Z,2.20
2022-08-02T12:42:50.852Z,1.92
2022-08-02T12:45:08.811Z,1.75
2022-08-02T12:47:31.130Z,1.70
2022-08-02T12:50:16.481Z,1.88
2022-08-02T12:52:34.256Z,2.00
2022-08-02T12:54:52.141Z,1.98
2022-08-02T12:57:13.791Z,1.90
2022-08-02T12:59:38.947Z,2.10
2022-08-02T13:02:02.169Z,1.75
2022-08-02T13:04:20.601Z,1.90
2022-08-02T13:06:45.859Z,2.10
2022-08-02T13:09:12.595Z,2.05
2022-08-02T13:11:30.331Z,1.90
2022-08-02T13:13:48.140Z,2.13
2022-08-02T13:16:06.380Z,2.30
2022-08-02T13:18:24.753Z,2.28
2022-08-02T13:20:48.166Z,2.20
2022-08-02T13:23:06.359Z,2.20
2022-08-02T13:25:24.186Z,2.83
2022-08-02T13:27:42.016Z,2.22
2022-08-02T13:30:00.589Z,2.05
2022-08-02T13:32:18.626Z,2.58
2022-08-02T13:34:36.746Z,2.30
2022-08-02T13:36:54.615Z,2.80
2022-08-02T13:39:12.809Z,2.20
2022-08-02T13:41:31.038Z,2.17
2022-08-02T13:43:54.065Z,2.60
2022-08-02T13:46:13.349Z,2.30
2022-08-02T13:48:31.140Z,2.47
2022-08-02T13:50:48.875Z,2.50
2022-08-02T13:53:06.698Z,2.30
2022-08-02T13:55:24.532Z,2.72
2022-08-02T13:57:42.259Z,2.70
2022-08-02T14:00:00.014Z,2.38
2022-08-02T14:02:18.595Z,2.70
2022-08-02T14:04:38.841Z,2.50
2022-08-02T14:06:57.302Z,2.50
2022-08-02T14:09:17.313Z,2.35
2022-08-02T14:11:35.195Z,2.88
2022-08-02T14:13:52.963Z,2.50
2022-08-02T14:16:11.137Z,2.50
2022-08-02T14:18:28.921Z,2.70
2022-08-02T14:20:47.284Z,2.50
2022-08-02T14:23:07.210Z,2.60
2022-08-02T14:25:26.075Z,2.42
2022-08-02T14:27:43.792Z,2.95
2022-08-02T14:30:01.634Z,2.60
2022-08-02T14:32:19.417Z,2.00
2022-08-02T14:34:37.181Z,2.42
2022-08-02T14:36:55.890Z,2.35
2022-08-02T14:39:13.669Z,2.25
2022-08-02T14:41:34.027Z,2.40
2022-08-02T14:44:11.753Z,2.20
2022-08-02T14:46:29.645Z,2.15
2022-08-02T14:48:47.350Z,2.13
2022-08-02T14:51:05.462Z,2.28
2022-08-02T14:53:23.483Z,2.35
2022-08-02T14:55:41.818Z,2.00
2022-08-02T14:57:59.624Z,2.30
2022-08-02T15:00:17.942Z,3.50
2022-08-02T15:02:35.693Z,2.90
2022-08-02T15:04:53.530Z,2.13
2022-08-02T15:07:11.684Z,2.22
2022-08-02T15:09:29.520Z,2.38
2022-08-02T15:11:49.072Z,2.30
2022-08-02T15:14:07.174Z,2.72
2022-08-02T15:16:41.685Z,2.10
2022-08-02T15:19:03.166Z,3.00
2022-08-02T15:21:35.760Z,2.03
2022-08-02T15:24:00.213Z,3.13
2022-08-02T15:26:20.790Z,2.40
2022-08-02T15:28:38.710Z,2.30
2022-08-02T15:30:56.563Z,2.03
2022-08-02T15:33:14.438Z,2.35
2022-08-02T15:35:32.329Z,2.58
2022-08-02T15:37:50.189Z,2.88
2022-08-02T15:40:08.319Z,3.08
2022-08-02T15:42:30.276Z,2.40
2022-08-02T15:47:07.408Z,2.38
2022-08-02T15:49:25.598Z,2.20
2022-08-02T15:51:43.438Z,2.30
2022-08-02T15:54:01.254Z,2.30
2022-08-02T15:56:21.915Z,2.05
2022-08-02T15:58:44.075Z,2.33
2022-08-02T16:01:02.586Z,2.08
2022-08-02T16:03:20.581Z,2.50
2022-08-02T16:05:38.381Z,2.03
2022-08-02T16:07:56.145Z,2.22
2022-08-02T16:10:14.082Z,2.40
2022-08-02T16:12:32.439Z,2.35
2022-08-02T16:14:50.902Z,2.35
2022-08-02T16:17:08.728Z,2.28
2022-08-02T16:19:47.776Z,2.42
2022-08-02T16:22:04.597Z,2.15
2022-08-02T16:24:22.758Z,2.50
2022-08-02T16:26:40.505Z,2.70
2022-08-02T16:28:58.940Z,2.10
2022-08-02T16:31:17.517Z,2.60
2022-08-02T16:33:35.322Z,2.67
2022-08-02T16:35:54.059Z,2.38
2022-08-02T16:38:11.903Z,2.50
2022-08-02T16:40:30.785Z,2.58
2022-08-02T16:42:48.792Z,2.25
2022-08-02T16:45:08.992Z,2.55
2022-08-02T16:47:42.780Z,2.28
2022-08-02T16:50:06.961Z,2.40
2022-08-02T16:52:27.988Z,2.35
2022-08-02T16:54:46.306Z,2.47
2022-08-02T16:57:07.694Z,2.22
2022-08-02T16:59:25.639Z,2.10
2022-08-02T17:02:03.186Z,2.53
2022-08-02T17:04:21.507Z,2.50
2022-08-02T17:06:39.992Z,2.75
2022-08-02T17:09:06.309Z,2.28
2022-08-02T17:11:26.688Z,2.90
2022-08-02T17:13:44.637Z,2.35
2022-08-02T17:16:20.446Z,2.33
2022-08-02T17:18:42.915Z,2.22
2022-08-02T17:21:04.271Z,2.30
2022-08-02T17:23:22.140Z,2.40
2022-08-02T17:25:41.943Z,2.70
2022-08-02T17:28:00.303Z,2.42
2022-08-02T17:30:26.904Z,2.47
2022-08-02T17:32:45.791Z,2.35
2022-08-02T17:35:04.211Z,2.30
2022-08-02T17:37:24.800Z,2.53
2022-08-02T17:39:43.853Z,2.55
2022-08-02T17:42:09.428Z,2.47
2022-08-02T17:44:37.129Z,3.00
2022-08-02T17:46:57.148Z,3.05
2022-08-02T17:49:20.478Z,2.70
2022-08-02T17:52:49.516Z,2.95
2022-08-02T17:54:18.808Z,2.60
2022-08-02T17:56:42.292Z,3.50
2022-08-02T18:00:03.574Z,2.90
2022-08-02T18:08:26.383Z,2.80
2022-08-02T18:11:17.030Z,2.85
2022-08-02T18:14:15.407Z,2.53
2022-08-02T18:17:15.397Z,2.28
2022-08-02T18:20:12.200Z,2.15
2022-08-02T18:25:55.437Z,2.50
2022-08-02T18:28:26.926Z,2.05
2022-08-02T18:30:46.153Z,1.95
2022-08-02T18:34:00.369Z,2.17
2022-08-02T18:35:41.708Z,2.00
2022-08-02T18:38:03.861Z,2.10
2022-08-02T18:40:21.993Z,2.00
2022-08-02T18:42:41.114Z,2.35
2022-08-02T18:44:58.863Z,2.17
2022-08-02T18:47:17.398Z,2.03
2022-08-02T18:49:47.874Z,2.08
2022-08-02T18:52:09.760Z,2.25
2022-08-02T18:54:30.999Z,2.25
2022-08-02T18:56:52.674Z,2.67
2022-08-02T18:59:10.999Z,2.30
2022-08-02T19:01:33.976Z,2.40
2022-08-02T19:03:53.514Z,2.20
2022-08-02T19:06:11.631Z,2.38
2022-08-02T19:08:30.918Z,2.30
2022-08-02T19:10:56.400Z,2.13
2022-08-02T19:15:35.364Z,3.28
2022-08-02T19:17:56.937Z,4.07
2022-08-02T19:20:19.629Z,3.20
2022-08-02T19:23:08.287Z,2.95
2022-08-02T19:29:08.872Z,2.22
2022-08-02T19:31:27.497Z,2.30
2022-08-02T19:34:07.239Z,2.53
2022-08-02T19:36:26.276Z,2.33
2022-08-02T19:38:45.812Z,2.70
2022-08-02T19:41:09.081Z,2.53
2022-08-02T19:44:26.775Z,2.30
2022-08-02T19:46:05.273Z,2.13
2022-08-02T19:48:25.427Z,2.47
2022-08-02T19:50:49.238Z,2.53
2022-08-02T19:53:08.170Z,2.30
2022-08-02T19:55:58.760Z,2.40
2022-08-02T19:58:08.592Z,2.20
2022-08-02T20:00:26.946Z,2.60
2022-08-02T20:02:46.673Z,2.50
2022-08-02T20:05:16.393Z,2.43
2022-08-02T20:07:54.859Z,2.42
2022-08-02T20:10:13.927Z,2.80
2022-08-02T20:12:45.523Z,3.50
2022-08-02T20:15:56.090Z,2.90
2022-08-02T20:18:51.576Z,5.72
2022-08-02T20:21:35.433Z,3.65
2022-08-02T20:23:54.721Z,2.97
2022-08-02T20:26:12.645Z,2.88
2022-08-02T20:28:32.296Z,2.65
2022-08-02T20:30:50.284Z,7.82
2022-08-02T20:33:21.578Z,2.72
2022-08-02T20:35:40.570Z,4.17
2022-08-02T20:38:04.894Z,5.40
2022-08-02T20:40:24.402Z,2.88
2022-08-02T20:42:42.289Z,3.25
2022-08-02T20:45:00.230Z,3.65
2022-08-02T20:47:18.001Z,3.05
2022-08-02T20:50:04.574Z,2.67
2022-08-02T20:52:24.880Z,2.88
2022-08-02T20:54:46.293Z,2.72
2022-08-02T20:57:04.376Z,2.42
2022-08-02T20:59:22.131Z,2.58
2022-08-02T21:01:40.082Z,2.40
2022-08-02T21:04:16.600Z,2.50
2022-08-02T21:06:37.260Z,2.65
2022-08-02T21:08:57.485Z,2.47
2022-08-02T21:11:16.879Z,3.13
2022-08-02T21:13:46.262Z,2.88
2022-08-02T21:16:10.994Z,2.72
2022-08-02T21:18:37.027Z,2.42
2022-08-02T21:20:58.313Z,2.90
2022-08-02T21:23:18.241Z,2.80
2022-08-02T21:25:42.822Z,2.63
2022-08-02T21:28:17.637Z,2.90
2022-08-02T21:30:35.654Z,3.35
2022-08-02T21:32:56.955Z,2.72
2022-08-02T21:35:14.811Z,2.85
2022-08-02T21:37:33.107Z,3.63
2022-08-02T21:40:03.279Z,2.90
2022-08-02T21:42:23.544Z,2.90
2022-08-02T21:44:42.112Z,2.70
2022-08-02T21:47:04.013Z,2.90
2022-08-02T21:49:40.938Z,2.90
2022-08-02T21:52:03.389Z,2.70
2022-08-02T21:54:21.831Z,3.00
2022-08-02T21:56:39.709Z,2.90
2022-08-02T21:58:57.960Z,2.83
2022-08-02T22:01:17.863Z,2.90
2022-08-02T22:03:37.959Z,2.70
2022-08-02T22:05:56.032Z,2.88
2022-08-02T22:08:13.801Z,2.67
2022-08-02T22:10:54.306Z,2.50
2022-08-02T22:13:14.509Z,2.97
2022-08-02T22:15:36.040Z,2.72
2022-08-02T22:17:59.999Z,2.90
2022-08-02T22:20:18.305Z,3.38
2022-08-02T22:22:38.273Z,3.15
2022-08-02T22:24:56.512Z,3.08
2022-08-02T22:27:14.541Z,3.20
2022-08-02T22:29:37.677Z,2.83
2022-08-02T22:31:55.804Z,2.50
2022-08-02T22:34:36.746Z,3.20
2022-08-02T22:36:51.949Z,3.20
2022-08-02T22:39:19.463Z,3.30
2022-08-02T22:42:01.092Z,3.00
2022-08-02T22:44:16.816Z,3.15
2022-08-02T22:46:34.878Z,3.38
2022-08-02T22:48:55.354Z,2.80
2022-08-02T22:51:14.737Z,2.90
2022-08-02T22:53:35.389Z,2.78
2022-08-02T22:55:53.862Z,3.40
2022-08-02T22:58:12.912Z,2.83
2022-08-02T23:00:31.223Z,2.70
2022-08-02T23:02:49.000Z,3.20
2022-08-02T23:05:07.173Z,2.90
2022-08-02T23:07:24.955Z,3.20
2022-08-02T23:09:42.802Z,2.88
2022-08-02T23:12:01.261Z,3.15
2022-08-02T23:14:19.046Z,3.00
2022-08-02T23:16:55.539Z,3.47
2022-08-02T23:19:32.083Z,2.92
2022-08-02T23:22:01.209Z,3.17
2022-08-02T23:24:22.608Z,3.03
2022-08-02T23:26:40.382Z,2.78
2022-08-02T23:28:58.245Z,2.88
2022-08-02T23:31:27.717Z,2.80
2022-08-02T23:33:58.434Z,3.60
2022-08-02T23:36:22.447Z,3.42
2022-08-02T23:38:40.609Z,3.10
2022-08-02T23:40:58.392Z,4.03
2022-08-02T23:43:18.771Z,3.20
2022-08-02T23:45:38.014Z,3.22
2022-08-02T23:47:55.838Z,3.40
2022-08-02T23:50:13.631Z,4.03
2022-08-02T23:52:31.491Z,3.30
2022-08-02T23:54:49.347Z,3.10
2022-08-02T23:57:20.174Z,3.10
2022-08-02T23:59:39.797Z,3.08
